Time;durP1;ratioP1;P1;durP2;ratioP2;P2;SDS_P1;SDS_P2;PMS_P1;PMS_P2;Temp;Humidity;BMP_temperature;BMP_pressure;BME280_temperature;BME280_humidity;BME280_pressure;Samples;Min_cycle;Max_cycle;Signal;HPM_P1;HPM_P2
2023/05/27 00:00:20;;;;;;;11.02;6.57;;;;;;;15.82;65.19;95052.28;5086062;28;20039;-82
2023/05/27 00:02:46;;;;;;;8.57;6.65;;;;;;;15.81;65.79;95061.06;5089601;28;20036;-80
2023/05/27 00:05:11;;;;;;;11.35;8.40;;;;;;;15.78;65.76;95070.34;5094626;28;20067;-81
2023/05/27 00:07:37;;;;;;;12.18;10.15;;;;;;;15.82;65.92;95066.16;5085999;28;20024;-81
2023/05/27 00:10:02;;;;;;;15.00;11.52;;;;;;;15.63;66.79;95056.38;5086693;28;20118;-82
2023/05/27 00:12:28;;;;;;;13.02;11.20;;;;;;;15.56;67.31;95071.28;5085567;28;20106;-80
2023/05/27 00:14:53;;;;;;;14.55;11.02;;;;;;;15.56;67.49;95057.44;5070128;28;20111;-82
2023/05/27 00:17:19;;;;;;;12.25;11.05;;;;;;;15.53;67.52;95052.81;5088549;28;20024;-81
2023/05/27 00:19:47;;;;;;;13.25;11.20;;;;;;;15.57;67.57;95058.22;5082484;28;20031;-82
2023/05/27 00:22:13;;;;;;;12.80;10.35;;;;;;;15.47;68.05;95063.00;5086184;28;20425;-82
2023/05/27 00:24:39;;;;;;;11.88;10.63;;;;;;;15.44;67.99;95063.19;5086096;28;20032;-81
2023/05/27 00:27:08;;;;;;;14.02;10.85;;;;;;;15.46;67.76;95050.38;5069715;28;20106;-81
2023/05/27 00:29:34;;;;;;;14.25;10.68;;;;;;;15.51;67.86;95055.31;5085253;28;20024;-81
2023/05/27 00:32:02;;;;;;;12.18;10.45;;;;;;;15.58;67.63;95059.75;5069617;28;20050;-82
2023/05/27 00:34:28;;;;;;;14.90;11.05;;;;;;;15.60;67.69;95058.06;5068727;28;20056;-81
2023/05/27 00:36:53;;;;;;;13.57;10.23;;;;;;;15.64;67.63;95053.13;5086579;28;20031;-82
2023/05/27 00:39:18;;;;;;;13.27;9.50;;;;;;;15.56;67.33;95054.69;5085498;28;20470;-82
2023/05/27 00:41:48;;;;;;;10.90;9.73;;;;;;;15.35;68.20;95052.88;5087168;28;20106;-81
2023/05/27 00:44:14;;;;;;;11.05;8.85;;;;;;;15.30;68.02;95050.72;5086035;28;20153;-81
2023/05/27 00:46:40;;;;;;;13.05;10.07;;;;;;;15.28;68.59;95044.91;5084853;28;20032;-80
2023/05/27 00:49:05;;;;;;;14.43;10.45;;;;;;;15.27;68.66;95043.38;5086227;28;20048;-81
2023/05/27 00:51:31;;;;;;;14.50;10.77;;;;;;;15.13;69.31;95031.69;5084929;28;20039;-82
2023/05/27 00:53:56;;;;;;;17.67;11.38;;;;;;;15.08;69.92;95029.56;5069327;28;20717;-79
2023/05/27 00:56:22;;;;;;;13.90;9.82;;;;;;;15.04;69.03;95039.25;5084701;28;20115;-80
2023/05/27 00:58:47;;;;;;;13.85;11.00;;;;;;;15.12;69.33;95024.63;5068893;28;20020;-80
2023/05/27 01:01:13;;;;;;;12.18;10.07;;;;;;;15.20;69.00;95029.84;5086922;28;20047;-79
2023/05/27 01:03:41;;;;;;;13.93;9.93;;;;;;;15.29;68.75;95029.81;5067748;28;20051;-80
2023/05/27 01:06:36;;;;;;;12.00;10.57;;;;;;;15.39;68.80;95014.72;5085842;28;20036;-81
2023/05/27 01:09:11;;;;;;;13.13;9.90;;;;;;;15.49;69.12;95019.00;5093927;28;20043;-80
2023/05/27 01:11:54;;;;;;;14.63;9.77;;;;;;;15.55;68.94;95003.28;5086987;28;20043;-81
2023/05/27 01:14:20;;;;;;;12.50;10.38;;;;;;;15.61;69.04;95006.94;5064733;28;20051;-80
2023/05/27 01:16:46;;;;;;;12.82;9.82;;;;;;;15.66;69.13;94995.25;5085415;28;20507;-81
2023/05/27 01:19:14;;;;;;;12.45;9.45;;;;;;;15.72;68.33;94989.84;5085863;28;20031;-81
2023/05/27 01:21:44;;;;;;;13.05;10.48;;;;;;;15.77;68.63;94991.19;5084542;28;20024;-80
2023/05/27 01:24:11;;;;;;;11.27;9.40;;;;;;;15.77;68.25;94975.34;5069580;28;20478;-81
2023/05/27 01:26:36;;;;;;;11.88;9.45;;;;;;;15.79;68.13;94972.84;5085865;28;20375;-81
2023/05/27 01:29:02;;;;;;;11.75;7.53;;;;;;;15.80;66.54;94968.84;5085852;28;20031;-80
2023/05/27 01:31:45;;;;;;;12.68;9.57;;;;;;;15.86;67.11;94964.19;5084740;28;20024;-81
2023/05/27 01:34:14;;;;;;;12.18;9.60;;;;;;;15.88;67.63;94960.94;5067875;28;20024;-80
2023/05/27 01:37:02;;;;;;;11.30;8.93;;;;;;;15.92;68.15;94959.53;5085376;28;20039;-80
2023/05/27 01:39:27;;;;;;;10.13;9.13;;;;;;;15.93;67.82;94963.06;5083891;28;20020;-80
2023/05/27 01:41:53;;;;;;;10.32;9.07;;;;;;;15.93;67.74;94960.28;5086625;28;20080;-80
2023/05/27 01:44:19;;;;;;;10.98;8.95;;;;;;;15.94;67.54;94964.59;5085229;28;20060;-81
2023/05/27 01:46:45;;;;;;;12.15;9.63;;;;;;;15.95;67.89;94960.63;5086827;28;20024;-81
2023/05/27 01:49:10;;;;;;;11.55;9.07;;;;;;;15.97;67.71;94954.59;5098204;28;20036;-80
2023/05/27 01:51:36;;;;;;;11.25;9.48;;;;;;;15.96;68.04;94969.69;5089349;28;20036;-81
2023/05/27 01:54:02;;;;;;;12.20;10.27;;;;;;;15.92;67.63;94967.84;5086980;28;20049;-81
2023/05/27 01:56:27;;;;;;;14.05;10.68;;;;;;;15.91;67.80;94971.09;5083771;28;20087;-81
2023/05/27 01:58:53;;;;;;;13.20;10.63;;;;;;;15.87;67.94;94973.28;5085077;28;20024;-80
2023/05/27 02:01:19;;;;;;;12.82;10.18;;;;;;;15.85;68.11;94964.66;5084015;28;20027;-80
2023/05/27 02:03:44;;;;;;;16.92;11.15;;;;;;;15.84;68.16;94965.91;5085722;28;20136;-80
2023/05/27 02:06:10;;;;;;;14.23;10.00;;;;;;;15.80;68.04;94968.09;5084680;28;20033;-80
2023/05/27 02:08:37;;;;;;;12.13;9.63;;;;;;;15.79;68.21;94966.56;5086428;28;20024;-79
2023/05/27 02:11:02;;;;;;;10.80;9.65;;;;;;;15.78;68.30;94962.25;5094387;28;20024;-81
2023/05/27 02:13:28;;;;;;;12.38;10.23;;;;;;;15.76;68.09;94970.25;5084233;28;20035;-81
2023/05/27 02:15:54;;;;;;;11.00;9.63;;;;;;;15.74;68.11;94969.97;5092660;28;20108;-81
2023/05/27 02:18:20;;;;;;;11.68;9.88;;;;;;;15.75;68.00;94971.50;5085166;28;20107;-81
2023/05/27 02:20:46;;;;;;;13.57;9.70;;;;;;;15.71;67.87;94971.66;5085724;28;20125;-81
2023/05/27 02:23:11;;;;;;;10.85;9.05;;;;;;;15.64;67.87;94963.69;5066634;28;20020;-80
2023/05/27 02:25:37;;;;;;;12.18;9.68;;;;;;;15.69;67.85;94973.38;5083585;28;20020;-80
2023/05/27 02:28:02;;;;;;;10.68;9.57;;;;;;;15.65;67.89;94973.53;5084409;28;20027;-82
2023/05/27 02:30:31;;;;;;;13.45;9.27;;;;;;;15.61;67.89;94972.94;5084966;28;20024;-81
2023/05/27 02:32:57;;;;;;;12.77;9.07;;;;;;;15.59;68.09;94973.38;5084025;28;20055;-80
2023/05/27 02:35:23;;;;;;;12.15;10.13;;;;;;;15.57;67.72;94970.31;5066551;28;20035;-81
2023/05/27 02:37:48;;;;;;;10.55;9.20;;;;;;;15.55;68.03;94970.03;5084244;28;20413;-80
2023/05/27 02:40:24;;;;;;;11.98;9.82;;;;;;;15.57;68.32;94972.31;5083543;28;20516;-81
2023/05/27 02:42:50;;;;;;;13.43;11.05;;;;;;;15.57;68.02;94969.56;5067203;28;20185;-83
2023/05/27 02:45:15;;;;;;;13.27;10.00;;;;;;;15.57;68.29;94973.09;5084809;28;20556;-82
2023/05/27 02:47:41;;;;;;;11.38;10.18;;;;;;;15.56;68.19;94977.09;5084703;28;20020;-82
2023/05/27 02:50:06;;;;;;;14.15;10.13;;;;;;;15.56;68.30;94968.78;5085631;28;20411;-82
2023/05/27 02:52:32;;;;;;;12.43;10.30;;;;;;;15.55;68.19;94964.47;5084641;28;20124;-81
2023/05/27 02:54:57;;;;;;;11.45;10.02;;;;;;;15.50;68.03;94976.19;5085351;28;20027;-80
2023/05/27 02:57:23;;;;;;;15.43;9.93;;;;;;;15.51;68.02;94972.19;5083358;28;20403;-83
2023/05/27 02:59:48;;;;;;;12.20;9.80;;;;;;;15.50;67.84;94956.81;5084638;28;20028;-82
2023/05/27 03:02:13;;;;;;;13.27;10.52;;;;;;;15.49;67.97;94965.59;5083951;28;20425;-81
2023/05/27 03:04:39;;;;;;;12.30;10.57;;;;;;;15.48;68.25;94972.34;5074090;28;20036;-80
2023/05/27 03:07:06;;;;;;;13.18;10.35;;;;;;;15.48;68.12;94983.44;5094271;28;20028;-81
2023/05/27 03:09:31;;;;;;;13.13;10.70;;;;;;;15.46;68.32;94975.59;5083428;28;20134;-82
2023/05/27 03:11:57;;;;;;;11.73;9.27;;;;;;;15.48;68.00;94978.66;5084001;28;20107;-82
2023/05/27 03:14:22;;;;;;;10.65;9.55;;;;;;;15.49;68.11;94974.66;5084837;28;20024;-82
2023/05/27 03:16:48;;;;;;;13.00;9.27;;;;;;;15.48;68.45;94969.56;5085466;28;20099;-81
2023/05/27 03:19:15;;;;;;;10.85;8.95;;;;;;;15.50;68.01;94965.13;5084697;28;20351;-82
2023/05/27 03:21:40;;;;;;;9.98;8.93;;;;;;;15.51;67.79;94969.41;5088492;28;20024;-81
2023/05/27 03:24:06;;;;;;;12.60;9.27;;;;;;;15.53;67.76;94983.56;5084740;28;20406;-81
2023/05/27 03:26:33;;;;;;;11.05;9.18;;;;;;;15.53;68.06;94980.03;5066397;28;20027;-81
2023/05/27 03:28:58;;;;;;;12.55;8.63;;;;;;;15.50;67.94;94975.44;5084045;28;20028;-82
2023/05/27 03:31:23;;;;;;;10.38;8.93;;;;;;;15.52;67.87;94970.19;5084405;28;20451;-82
2023/05/27 03:33:49;;;;;;;11.80;8.35;;;;;;;15.52;67.82;94970.19;5085340;28;20032;-81
2023/05/27 03:36:14;;;;;;;9.60;7.88;;;;;;;15.54;67.58;94976.00;5086630;28;20032;-81
2023/05/27 03:38:40;;;;;;;9.70;8.23;;;;;;;15.52;67.53;94978.50;5087767;28;20632;-80
2023/05/27 03:41:06;;;;;;;10.65;8.05;;;;;;;15.55;67.46;94978.34;5088414;28;20019;-80
2023/05/27 03:43:32;;;;;;;11.85;8.38;;;;;;;15.57;67.27;94989.72;5088394;28;20477;-81
2023/05/27 03:45:58;;;;;;;9.98;8.35;;;;;;;15.58;67.23;94980.16;5088584;28;20107;-82
2023/05/27 03:48:23;;;;;;;9.93;8.43;;;;;;;15.61;67.24;94986.78;5052921;28;20173;-82
2023/05/27 03:50:48;;;;;;;10.00;8.57;;;;;;;15.62;67.17;94986.34;5087689;28;20109;-81
2023/05/27 03:53:14;;;;;;;9.85;8.43;;;;;;;15.64;67.15;94985.84;5087894;28;20032;-80
2023/05/27 03:55:39;;;;;;;9.75;7.70;;;;;;;15.63;66.80;94993.41;5088929;28;20032;-81
2023/05/27 03:58:05;;;;;;;9.20;8.27;;;;;;;15.65;66.76;94985.41;5087527;28;20035;-80
2023/05/27 04:00:30;;;;;;;8.98;7.53;;;;;;;15.70;67.03;94991.53;5095180;28;20077;-81
2023/05/27 04:02:56;;;;;;;9.80;7.75;;;;;;;15.60;67.10;94974.94;5093398;28;20486;-80
2023/05/27 04:05:21;;;;;;;11.45;8.50;;;;;;;15.73;67.01;94990.59;5087073;28;20032;-81
2023/05/27 04:07:47;;;;;;;11.18;8.73;;;;;;;15.74;67.37;94986.59;5088626;28;20627;-80
2023/05/27 04:10:13;;;;;;;10.40;8.20;;;;;;;15.75;67.20;94980.56;5095327;28;20016;-81
2023/05/27 04:12:40;;;;;;;9.32;7.75;;;;;;;15.78;66.95;94987.97;5102101;28;20156;-81
2023/05/27 04:15:06;;;;;;;9.68;7.57;;;;;;;15.81;66.85;94978.69;5086649;28;20023;-80
2023/05/27 04:17:31;;;;;;;9.50;7.18;;;;;;;15.84;66.79;94977.00;5088421;28;20505;-81
2023/05/27 04:19:59;;;;;;;9.80;7.65;;;;;;;15.88;66.76;94975.56;5087480;28;20028;-81
2023/05/27 04:22:24;;;;;;;7.78;6.47;;;;;;;15.90;66.39;94983.44;5086854;28;20027;-82
2023/05/27 04:25:02;;;;;;;8.43;6.75;;;;;;;15.91;66.18;94976.66;5091472;28;20020;-82
2023/05/27 04:27:28;;;;;;;7.43;6.30;;;;;;;15.94;66.14;94975.69;5074234;28;20028;-82
2023/05/27 04:29:58;;;;;;;7.40;6.57;;;;;;;15.98;65.89;94978.28;5090332;28;20028;-81
2023/05/27 04:32:37;;;;;;;6.90;6.00;;;;;;;16.05;66.03;94984.25;5088451;28;20051;-82
2023/05/27 04:35:09;;;;;;;6.82;6.07;;;;;;;16.10;65.64;94994.69;5072798;28;20093;-81
2023/05/27 04:37:36;;;;;;;6.80;5.72;;;;;;;16.18;65.50;94995.13;5087021;28;20039;-80
2023/05/27 04:40:06;;;;;;;8.18;5.70;;;;;;;16.28;65.04;94998.59;5087439;28;20616;-80
2023/05/27 04:42:32;;;;;;;6.15;5.55;;;;;;;16.34;64.85;94996.69;5087929;28;20020;-81
2023/05/27 04:44:58;;;;;;;6.30;5.60;;;;;;;16.39;65.00;94996.06;5086910;28;20027;-82
2023/05/27 04:47:23;;;;;;;7.10;6.13;;;;;;;16.45;64.58;94996.94;5086233;28;20028;-81
2023/05/27 04:49:49;;;;;;;7.88;6.07;;;;;;;16.52;64.85;95004.16;5086761;28;20038;-82
2023/05/27 04:52:14;;;;;;;6.80;5.70;;;;;;;16.53;64.69;95002.91;5087720;28;20472;-81
2023/05/27 04:54:40;;;;;;;6.35;5.65;;;;;;;16.56;64.73;94999.94;5085879;28;20034;-81
2023/05/27 04:57:06;;;;;;;9.77;5.30;;;;;;;16.57;64.43;95003.47;5095237;28;20024;-81
2023/05/27 04:59:58;;;;;;;6.38;5.03;;;;;;;16.60;64.20;94997.75;5086388;28;20029;-82
2023/05/27 05:02:34;;;;;;;7.47;5.38;;;;;;;16.58;64.19;94996.69;5086377;28;20032;-81
2023/05/27 05:05:03;;;;;;;8.40;5.13;;;;;;;16.44;64.50;95001.72;5087764;28;20054;-81
2023/05/27 05:07:29;;;;;;;8.45;6.18;;;;;;;16.42;64.92;94990.34;5084900;28;20514;-81
2023/05/27 05:09:56;;;;;;;5.78;4.97;;;;;;;16.39;64.85;94996.06;5052460;28;20048;-81
2023/05/27 05:12:22;;;;;;;6.88;6.00;;;;;;;16.37;64.99;94999.31;5085034;28;20028;-82
2023/05/27 05:14:48;;;;;;;8.07;6.28;;;;;;;16.36;64.84;95005.34;5085334;28;20031;-81
2023/05/27 05:17:14;;;;;;;7.60;6.05;;;;;;;16.36;65.10;95005.34;5068694;28;20020;-81
2023/05/27 05:19:40;;;;;;;7.60;6.18;;;;;;;16.37;64.85;95010.41;5084549;28;20030;-81
2023/05/27 05:22:05;;;;;;;6.88;6.15;;;;;;;16.36;65.18;95005.34;5085546;28;20024;-82
2023/05/27 05:24:32;;;;;;;9.15;6.47;;;;;;;16.43;64.79;95004.97;5084947;28;20131;-82
2023/05/27 05:26:57;;;;;;;8.88;6.85;;;;;;;16.40;65.02;95012.25;5087083;28;20028;-82
2023/05/27 05:29:23;;;;;;;6.15;5.30;;;;;;;16.49;64.74;95010.63;5089935;28;20020;-82
2023/05/27 05:31:48;;;;;;;9.15;5.90;;;;;;;16.44;64.86;95007.25;5081992;28;20040;-82
2023/05/27 05:34:15;;;;;;;8.23;5.75;;;;;;;16.54;64.70;95013.53;5069285;28;20434;-82
2023/05/27 05:36:41;;;;;;;6.45;5.75;;;;;;;16.60;64.07;95016.41;5084583;28;20093;-82
2023/05/27 05:39:06;;;;;;;7.65;6.40;;;;;;;16.52;64.86;95010.47;5085740;28;20099;-81
2023/05/27 05:41:33;;;;;;;7.15;6.25;;;;;;;16.60;64.75;95019.94;5085498;28;20490;-80
2023/05/27 05:43:58;;;;;;;8.35;6.30;;;;;;;16.64;64.99;95017.00;5085548;28;20031;-81
2023/05/27 05:46:24;;;;;;;6.57;5.60;;;;;;;16.68;64.95;95025.88;5084411;28;20028;-81
2023/05/27 05:48:52;;;;;;;7.75;6.13;;;;;;;16.83;64.55;95035.06;5086633;28;20466;-82
2023/05/27 05:51:17;;;;;;;7.25;6.35;;;;;;;16.95;64.18;95038.81;5076525;28;20101;-82
2023/05/27 05:53:42;;;;;;;7.03;5.50;;;;;;;17.03;64.09;95028.84;5090214;28;20487;-80
2023/05/27 05:56:08;;;;;;;8.45;6.05;;;;;;;16.99;63.88;95034.63;5068384;28;20051;-81
2023/05/27 05:58:33;;;;;;;7.50;6.05;;;;;;;17.10;63.96;95034.06;5084925;28;20478;-81
2023/05/27 06:01:00;;;;;;;6.55;5.85;;;;;;;17.16;63.37;95032.16;5085175;28;20026;-82
2023/05/27 06:03:25;;;;;;;6.78;6.00;;;;;;;17.20;63.43;95038.28;5085986;28;20127;-82
2023/05/27 06:05:51;;;;;;;7.28;5.75;;;;;;;17.25;63.21;95034.81;5085946;28;20409;-81
2023/05/27 06:08:16;;;;;;;9.57;7.25;;;;;;;17.22;63.66;95037.81;5084141;28;20078;-81
2023/05/27 06:10:42;;;;;;;11.48;7.18;;;;;;;17.18;64.20;95034.44;5085497;28;20032;-81
2023/05/27 06:13:10;;;;;;;10.52;7.20;;;;;;;17.22;64.38;95033.00;5085646;28;20036;-81
2023/05/27 06:15:36;;;;;;;11.85;7.57;;;;;;;17.28;64.24;95030.34;5083726;28;20020;-82
2023/05/27 06:18:02;;;;;;;8.93;7.10;;;;;;;17.35;63.98;95031.97;5067603;28;20031;-81
2023/05/27 06:20:27;;;;;;;13.07;7.45;;;;;;;17.34;63.96;95033.22;5083808;28;20024;-81
2023/05/27 06:22:52;;;;;;;8.45;7.15;;;;;;;17.39;64.03;95032.53;5084485;28;20074;-81
2023/05/27 06:25:18;;;;;;;8.88;7.28;;;;;;;17.47;64.02;95036.47;5066921;28;20111;-82
2023/05/27 06:27:43;;;;;;;10.27;8.13;;;;;;;17.46;63.89;95034.94;5084592;28;20016;-81
2023/05/27 06:30:09;;;;;;;10.65;7.82;;;;;;;17.44;63.76;95034.66;5086390;28;20028;-81
2023/05/27 06:32:34;;;;;;;9.27;7.43;;;;;;;17.57;63.29;95039.91;5094450;28;20401;-81
2023/05/27 06:35:00;;;;;;;8.43;7.53;;;;;;;17.50;63.53;95044.63;5104625;28;20200;-81
2023/05/27 06:37:25;;;;;;;12.93;8.43;;;;;;;17.53;63.73;95043.63;5098500;28;20111;-80
2023/05/27 06:39:51;;;;;;;12.63;7.47;;;;;;;17.67;63.96;95053.22;5086399;28;20085;-81
2023/05/27 06:42:16;;;;;;;10.50;7.80;;;;;;;17.78;63.94;95047.88;5083627;28;20457;-81
2023/05/27 06:44:42;;;;;;;10.15;8.88;;;;;;;17.88;63.46;95054.09;5084518;28;20025;-80
2023/05/27 06:47:07;;;;;;;10.88;8.43;;;;;;;17.90;62.95;95048.81;5094917;28;20722;-86
2023/05/27 06:49:32;;;;;;;11.30;8.20;;;;;;;18.00;62.95;95057.81;5089013;28;20028;-84
2023/05/27 06:51:58;;;;;;;11.27;8.50;;;;;;;17.99;62.69;95051.47;5087378;28;20666;-79
2023/05/27 06:54:24;;;;;;;12.00;8.90;;;;;;;17.98;62.52;95054.75;5083647;28;20112;-79
2023/05/27 06:56:49;;;;;;;13.73;8.70;;;;;;;17.86;62.90;95051.03;5083757;28;20032;-76
2023/05/27 06:59:15;;;;;;;14.43;9.57;;;;;;;17.92;63.30;95054.66;5083648;28;20027;-80
2023/05/27 07:01:40;;;;;;;12.15;8.65;;;;;;;18.11;62.56;95052.41;5084323;28;20081;-79
2023/05/27 07:04:07;;;;;;;15.95;8.52;;;;;;;18.23;62.45;95059.66;5066463;28;20140;-80
2023/05/27 07:06:32;;;;;;;12.65;7.88;;;;;;;18.39;62.15;95058.38;5085321;28;20032;-80
2023/05/27 07:08:57;;;;;;;11.77;9.25;;;;;;;18.43;62.00;95052.59;5085050;28;20016;-80
2023/05/27 07:11:23;;;;;;;13.50;8.85;;;;;;;18.57;61.90;95057.34;5087651;28;20055;-79
2023/05/27 07:13:48;;;;;;;13.38;8.73;;;;;;;18.54;61.92;95050.75;5087789;28;20059;-78
2023/05/27 07:16:15;;;;;;;9.65;8.02;;;;;;;18.68;61.50;95059.53;5086858;28;20372;-77
2023/05/27 07:18:40;;;;;;;9.30;8.30;;;;;;;18.74;60.94;95061.13;5070565;28;20043;-75
2023/05/27 07:21:06;;;;;;;12.38;8.52;;;;;;;18.74;61.31;95060.38;5088588;28;20020;-76
2023/05/27 07:23:31;;;;;;;19.35;11.43;;;;;;;18.76;61.35;95058.63;5071035;28;20453;-77
2023/05/27 07:25:57;;;;;;;15.25;9.57;;;;;;;18.83;60.54;95066.56;5088075;28;20595;-75
2023/05/27 07:28:22;;;;;;;11.02;9.20;;;;;;;18.89;60.35;95068.66;5088984;28;20161;-77
2023/05/27 07:30:47;;;;;;;11.13;8.25;;;;;;;19.00;60.15;95069.56;5088510;28;20027;-77
2023/05/27 07:33:13;;;;;;;12.98;8.77;;;;;;;18.95;59.75;95070.25;5086819;28;20024;-80
2023/05/27 07:35:40;;;;;;;11.05;8.27;;;;;;;18.95;59.95;95073.03;5089441;28;20435;-81
2023/05/27 07:38:06;;;;;;;13.75;8.07;;;;;;;19.06;59.75;95073.16;5088412;28;20028;-73
2023/05/27 07:40:33;;;;;;;10.82;7.75;;;;;;;19.11;59.35;95071.69;5087484;28;20497;-73
2023/05/27 07:42:58;;;;;;;10.30;7.82;;;;;;;19.20;58.99;95065.97;5094170;28;20024;-73
2023/05/27 07:45:25;;;;;;;9.45;7.78;;;;;;;19.31;58.90;95060.50;5071545;28;20035;-75
2023/05/27 07:47:51;;;;;;;11.00;7.50;;;;;;;19.39;58.47;95069.22;5087759;28;20036;-74
2023/05/27 07:50:16;;;;;;;10.98;7.20;;;;;;;19.45;58.03;95058.13;5086804;28;20028;-75
2023/05/27 07:52:42;;;;;;;13.25;8.15;;;;;;;19.49;58.25;95067.00;5086759;28;20020;-75
2023/05/27 07:55:08;;;;;;;12.48;7.82;;;;;;;19.51;58.07;95068.06;5085918;28;20403;-75
2023/05/27 07:57:33;;;;;;;9.80;7.90;;;;;;;19.49;58.30;95069.78;5070055;28;20031;-75
2023/05/27 07:59:59;;;;;;;11.45;8.10;;;;;;;19.58;57.88;95066.84;5085929;28;20024;-75
2023/05/27 08:02:25;;;;;;;10.75;8.05;;;;;;;19.56;57.50;95059.00;5087057;28;20038;-75
2023/05/27 08:04:51;;;;;;;10.05;8.20;;;;;;;19.57;57.80;95073.69;5084778;28;20044;-75
2023/05/27 08:07:16;;;;;;;12.25;8.13;;;;;;;19.58;57.67;95076.00;5068708;28;20057;-74
2023/05/27 08:09:41;;;;;;;9.23;8.23;;;;;;;19.58;57.72;95072.44;5086343;28;20067;-74
2023/05/27 08:12:07;;;;;;;11.13;8.13;;;;;;;19.65;57.99;95074.03;5067928;28;20019;-74
2023/05/27 08:14:33;;;;;;;11.00;8.20;;;;;;;19.72;57.88;95079.94;5085487;28;20016;-75
2023/05/27 08:16:58;;;;;;;14.48;9.05;;;;;;;19.76;57.66;95076.94;5084233;28;20024;-75
2023/05/27 08:19:24;;;;;;;12.93;8.50;;;;;;;19.76;57.30;95072.13;5086877;28;20085;-76
2023/05/27 08:21:49;;;;;;;13.45;7.90;;;;;;;19.93;57.22;95077.06;5085518;28;20020;-75
2023/05/27 08:24:17;;;;;;;12.45;7.35;;;;;;;20.06;56.55;95077.41;5086752;28;20016;-74
2023/05/27 08:26:42;;;;;;;8.73;6.63;;;;;;;20.12;56.61;95070.63;5085932;28;20020;-72
2023/05/27 08:29:08;;;;;;;12.25;7.18;;;;;;;20.16;56.59;95081.56;5086442;28;20027;-77
2023/05/27 08:31:33;;;;;;;10.18;6.70;;;;;;;20.17;56.02;95077.50;5085034;28;20499;-77
2023/05/27 08:33:59;;;;;;;12.30;7.13;;;;;;;20.23;55.78;95069.94;5085577;28;20032;-77
2023/05/27 08:36:25;;;;;;;9.10;6.55;;;;;;;20.32;55.54;95075.31;5069179;28;20034;-77
2023/05/27 08:38:50;;;;;;;10.32;6.40;;;;;;;20.37;55.00;95080.19;5092512;28;20103;-78
2023/05/27 08:41:16;;;;;;;11.52;7.05;;;;;;;20.37;55.16;95082.22;5086707;28;20032;-78
2023/05/27 08:43:42;;;;;;;12.18;6.22;;;;;;;20.40;55.17;95073.59;5086126;28;20024;-78
2023/05/27 08:46:07;;;;;;;11.02;6.85;;;;;;;20.46;55.51;95084.81;5087325;28;20032;-77
2023/05/27 08:48:33;;;;;;;10.38;6.90;;;;;;;20.42;55.12;95076.66;5094267;28;20489;-77
2023/05/27 08:51:00;;;;;;;15.15;9.05;;;;;;;20.43;55.11;95075.41;5088829;28;20024;-79
2023/05/27 08:53:26;;;;;;;19.85;11.07;;;;;;;20.45;55.36;95074.13;5085586;28;20348;-78
2023/05/27 08:55:52;;;;;;;18.17;13.10;;;;;;;20.42;55.44;95076.66;5085575;28;20031;-76
2023/05/27 08:58:18;;;;;;;17.35;13.88;;;;;;;20.42;55.39;95070.31;5084945;28;20054;-77
2023/05/27 09:00:43;;;;;;;14.02;12.02;;;;;;;20.40;55.76;95072.81;5084480;28;20028;-78
2023/05/27 09:03:09;;;;;;;11.55;9.85;;;;;;;20.46;55.43;95068.06;5027734;28;1618357;-77
2023/05/27 09:05:34;;;;;;;10.57;8.23;;;;;;;20.41;55.21;95068.78;5084873;28;20480;-76
2023/05/27 09:08:00;;;;;;;9.68;7.15;;;;;;;20.33;55.03;95068.47;5085260;28;20467;-77
2023/05/27 09:10:39;;;;;;;13.98;8.68;;;;;;;20.36;55.45;95072.31;5085077;28;20028;-78
2023/05/27 09:13:04;;;;;;;10.43;8.52;;;;;;;20.29;56.55;95061.59;5084334;28;20113;-78
2023/05/27 09:15:34;;;;;;;10.75;8.25;;;;;;;20.33;55.38;95065.69;5085626;28;20517;-78
2023/05/27 09:18:02;;;;;;;11.32;7.82;;;;;;;20.41;55.96;95069.56;5085935;28;20027;-80
2023/05/27 09:20:28;;;;;;;10.27;8.05;;;;;;;20.51;56.10;95069.38;5068384;28;20032;-76
2023/05/27 09:23:02;;;;;;;11.48;8.65;;;;;;;20.59;56.42;95059.28;5084672;28;20028;-78
2023/05/27 09:25:27;;;;;;;;;;;;;;;20.62;56.60;95063.84;5085726;28;20043;-78
2023/05/27 09:27:54;;;;;;;13.23;7.68;;;;;;;20.60;56.75;95055.22;5084790;28;19983;-82
2023/05/27 09:30:20;;;;;;;8.95;6.82;;;;;;;20.65;56.63;95057.28;5084448;28;20032;-75
2023/05/27 09:32:46;;;;;;;8.60;7.20;;;;;;;20.63;56.06;95049.38;5070496;28;20506;-80
2023/05/27 09:35:13;;;;;;;8.73;7.70;;;;;;;20.68;55.68;95053.47;5084412;28;20028;-79
2023/05/27 09:37:39;;;;;;;7.90;6.60;;;;;;;20.60;55.55;95049.63;5086572;28;20036;-83
2023/05/27 09:40:12;;;;;;;7.40;5.80;;;;;;;20.62;55.77;95047.09;5085581;28;20031;-89
2023/05/27 09:42:42;;;;;;;8.60;6.47;;;;;;;20.67;55.41;95040.78;5091071;28;20035;-84
2023/05/27 09:45:15;;;;;;;9.35;6.47;;;;;;;20.64;54.71;95042.56;5087184;28;20028;-83
2023/05/27 09:47:41;;;;;;;;;;;;;;;20.71;54.44;95048.94;5075153;28;20039;-91
2023/05/27 09:50:09;;;;;;;5.88;4.68;;;;;;;20.70;54.03;95042.53;5092611;28;19912;-89
2023/05/27 09:52:37;;;;;;;6.85;5.13;;;;;;;20.76;53.96;95037.78;5103398;28;20081;-86
2023/05/27 09:55:03;;;;;;;7.32;4.97;;;;;;;20.84;53.50;95038.81;5087632;28;20028;-83
2023/05/27 09:57:29;;;;;;;8.32;6.07;;;;;;;20.94;53.23;95037.34;5083692;28;20428;-86
2023/05/27 09:59:55;;;;;;;8.65;5.65;;;;;;;20.89;53.06;95031.72;5085946;28;20027;-77
2023/05/27 10:02:21;;;;;;;9.40;5.57;;;;;;;21.04;52.91;95032.25;5084377;28;20126;-79
2023/05/27 10:04:48;;;;;;;7.75;5.18;;;;;;;21.08;52.12;95037.63;5085845;28;20048;-86
2023/05/27 10:07:18;;;;;;;7.28;5.55;;;;;;;21.17;51.80;95040.19;5084364;28;20048;-76
2023/05/27 10:09:46;;;;;;;9.35;5.55;;;;;;;21.27;51.34;95041.47;5085027;28;20041;-76
2023/05/27 10:12:13;;;;;;;7.75;5.85;;;;;;;21.47;49.96;95035.72;5066971;28;20031;-77
2023/05/27 10:14:39;;;;;;;5.95;4.93;;;;;;;21.66;50.11;95033.16;5083512;28;20032;-77
2023/05/27 10:17:04;;;;;;;7.40;5.13;;;;;;;21.89;49.61;95033.19;5084296;28;20076;-76
2023/05/27 10:19:30;;;;;;;6.70;4.80;;;;;;;22.07;49.25;95026.28;5066429;28;20017;-75
2023/05/27 10:21:55;;;;;;;7.90;5.28;;;;;;;22.18;48.47;95029.88;5085449;28;20027;-77
2023/05/27 10:24:30;;;;;;;6.55;5.32;;;;;;;22.62;47.43;95022.66;5083903;28;20748;-81
2023/05/27 10:27:03;;;;;;;7.20;4.43;;;;;;;22.92;45.36;95031.22;5084771;28;20042;-81
2023/05/27 10:29:38;;;;;;;7.70;3.92;;;;;;;23.16;45.09;95021.41;5093172;28;20438;-81
2023/05/27 10:32:04;;;;;;;9.52;4.68;;;;;;;23.30;43.18;95020.34;5083899;28;20038;-82
2023/05/27 10:34:39;;;;;;;5.75;4.00;;;;;;;23.37;43.06;95016.97;5084098;28;20035;-80
2023/05/27 10:37:04;;;;;;;5.10;3.65;;;;;;;23.56;43.54;95017.84;5085233;28;20043;-84
2023/05/27 10:39:31;;;;;;;5.28;3.75;;;;;;;23.84;43.56;95020.47;5083675;28;20020;-82
2023/05/27 10:41:57;;;;;;;5.57;4.43;;;;;;;24.04;43.43;95008.06;5084310;28;20031;-82
2023/05/27 10:44:30;;;;;;;5.00;3.92;;;;;;;24.20;42.94;95017.63;5084332;28;20036;-80
2023/05/27 10:47:00;;;;;;;;;;;;;;;24.17;42.02;95007.44;5084501;28;20132;-80
2023/05/27 10:49:32;;;;;;;7.22;4.28;;;;;;;24.40;41.80;94988.34;5082947;28;19912;-81
2023/05/27 10:52:00;;;;;;;5.25;3.83;;;;;;;24.55;41.28;94999.94;5067519;28;20124;-80
2023/05/27 10:54:26;;;;;;;5.65;3.33;;;;;;;24.55;41.30;94994.31;5066677;28;20463;-77
2023/05/27 10:56:52;;;;;;;4.85;3.88;;;;;;;24.53;40.67;95001.72;5086435;28;20062;-82
2023/05/27 10:59:22;;;;;;;4.90;3.83;;;;;;;24.66;40.62;95001.06;5075706;28;20118;-80
2023/05/27 11:01:55;;;;;;;6.60;3.85;;;;;;;24.76;41.09;95002.22;5083637;28;20046;-83
2023/05/27 11:04:21;;;;;;;7.90;4.22;;;;;;;24.83;41.20;95001.63;5067344;28;20036;-79
2023/05/27 11:07:00;;;;;;;4.53;3.92;;;;;;;24.77;40.97;94992.50;5085451;28;20042;-82
2023/05/27 11:09:25;;;;;;;6.18;3.78;;;;;;;24.79;40.16;94996.31;5079381;28;20036;-81
2023/05/27 11:11:51;;;;;;;6.35;3.72;;;;;;;24.70;39.90;94987.47;5069567;28;20127;-79
2023/05/27 11:14:19;;;;;;;4.60;3.80;;;;;;;24.53;40.47;94988.44;5084400;28;20028;-80
2023/05/27 11:16:51;;;;;;;3.95;3.55;;;;;;;23.95;39.87;94985.94;5084579;28;20134;-79
2023/05/27 11:19:26;;;;;;;6.07;3.63;;;;;;;24.28;40.62;94982.03;5083142;28;20028;-80
2023/05/27 11:21:51;;;;;;;4.80;3.53;;;;;;;24.56;40.56;94975.38;5066912;28;20490;-78
2023/05/27 11:24:17;;;;;;;5.47;4.07;;;;;;;24.71;40.48;94978.50;5091552;28;20027;-80
2023/05/27 11:26:47;;;;;;;4.60;3.45;;;;;;;24.80;39.41;94971.78;5083698;28;20031;-79